createdAt,value
2022-10-09T00:00:49.968Z,6.35
2022-10-09T00:03:17.737Z,5.55
2022-10-09T00:05:45.655Z,7.38
2022-10-09T00:08:12.742Z,6.50
2022-10-09T00:10:43.403Z,9.00
2022-10-09T00:13:10.253Z,5.97
2022-10-09T00:15:42.468Z,7.82
2022-10-09T00:18:10.187Z,12.30
2022-10-09T00:20:42.817Z,7.32
2022-10-09T00:23:10.796Z,9.70
2022-10-09T00:26:13.319Z,13.50
2022-10-09T00:28:40.198Z,19.73
2022-10-09T00:31:09.318Z,17.98
2022-10-09T00:33:36.837Z,15.43
2022-10-09T00:36:16.919Z,8.57
2022-10-09T00:38:43.771Z,10.85
2022-10-09T00:41:16.533Z,7.03
2022-10-09T00:43:57.014Z,7.65
2022-10-09T00:46:41.546Z,5.35
2022-10-09T00:49:07.858Z,6.88
2022-10-09T00:51:35.604Z,6.00
2022-10-09T00:54:05.441Z,9.98
2022-10-09T00:56:35.274Z,10.20
2022-10-09T00:59:03.963Z,7.35
2022-10-09T01:01:30.667Z,7.25
2022-10-09T01:03:57.148Z,8.90
2022-10-09T01:06:46.856Z,7.68
2022-10-09T01:10:00.106Z,7.88
2022-10-09T01:12:36.079Z,9.55
2022-10-09T01:15:24.206Z,5.97
2022-10-09T01:18:06.957Z,8.40
2022-10-09T01:20:46.831Z,6.38
2022-10-09T01:23:36.937Z,8.80
2022-10-09T01:26:15.933Z,8.00
2022-10-09T01:28:46.917Z,9.75
2022-10-09T01:31:15.598Z,8.32
2022-10-09T01:33:42.689Z,9.07
2022-10-09T01:36:10.311Z,10.63
2022-10-09T01:38:40.344Z,7.15
2022-10-09T01:41:08.196Z,7.18
2022-10-09T01:43:35.078Z,8.05
2022-10-09T01:46:18.863Z,7.13
2022-10-09T01:48:51.400Z,6.90
2022-10-09T01:51:21.800Z,6.05
2022-10-09T01:53:51.062Z,6.45
2022-10-09T01:56:22.177Z,12.52
2022-10-09T01:58:52.937Z,9.98
2022-10-09T02:01:32.718Z,7.28
2022-10-09T02:04:02.334Z,8.50
2022-10-09T02:06:31.164Z,13.90
2022-10-09T02:08:58.539Z,10.07
2022-10-09T02:11:29.477Z,8.90
2022-10-09T02:13:56.382Z,6.45
2022-10-09T02:16:37.308Z,6.72
2022-10-09T02:19:12.036Z,11.25
2022-10-09T02:21:44.038Z,9.57
2022-10-09T02:24:17.917Z,6.57
2022-10-09T02:26:44.417Z,9.52
2022-10-09T02:29:12.394Z,8.70
2022-10-09T02:31:41.565Z,7.75
2022-10-09T02:34:12.463Z,6.10
2022-10-09T02:36:39.588Z,7.60
2022-10-09T02:39:07.477Z,8.60
2022-10-09T02:41:34.760Z,8.25
2022-10-09T02:44:02.063Z,7.38
2022-10-09T02:46:28.946Z,9.90
2022-10-09T02:48:55.391Z,9.07
2022-10-09T02:51:22.230Z,10.25
2022-10-09T02:53:48.920Z,9.23
2022-10-09T02:56:15.294Z,10.25
2022-10-09T02:58:41.963Z,8.85
2022-10-09T03:01:08.519Z,6.63
2022-10-09T03:03:35.044Z,6.95
2022-10-09T03:06:02.167Z,7.85
2022-10-09T03:08:28.651Z,6.20
2022-10-09T03:11:01.063Z,5.90
2022-10-09T03:13:27.662Z,6.72
2022-10-09T03:15:54.200Z,7.50
2022-10-09T03:18:22.817Z,8.07
2022-10-09T03:20:49.228Z,6.28
2022-10-09T03:23:15.757Z,7.28
2022-10-09T03:25:42.681Z,6.88
2022-10-09T03:28:09.216Z,5.50
2022-10-09T03:30:35.684Z,8.45
2022-10-09T03:33:02.352Z,9.55
2022-10-09T03:35:28.720Z,6.18
2022-10-09T03:37:56.221Z,8.38
2022-10-09T03:40:22.611Z,8.30
2022-10-09T03:42:49.294Z,8.57
2022-10-09T03:45:15.975Z,8.18
2022-10-09T03:47:42.511Z,9.20
2022-10-09T03:50:09.633Z,7.35
2022-10-09T03:52:36.280Z,8.13
2022-10-09T03:55:03.069Z,6.68
2022-10-09T03:57:29.466Z,10.95
2022-10-09T03:59:55.946Z,6.65
2022-10-09T04:02:22.404Z,7.95
2022-10-09T04:04:48.920Z,7.72
2022-10-09T04:07:15.310Z,9.90
2022-10-09T04:09:41.762Z,9.43
2022-10-09T04:12:08.357Z,8.30
2022-10-09T04:14:34.787Z,8.90
2022-10-09T04:17:01.172Z,8.85
2022-10-09T04:19:27.733Z,9.77
2022-10-09T04:21:54.195Z,9.88
2022-10-09T04:24:20.717Z,10.35
2022-10-09T04:26:47.148Z,8.43
2022-10-09T04:29:13.611Z,7.65
2022-10-09T04:31:40.119Z,10.50
2022-10-09T04:34:06.636Z,10.82
2022-10-09T04:36:33.165Z,8.45
2022-10-09T04:38:59.591Z,8.77
2022-10-09T04:41:26.098Z,9.48
2022-10-09T04:43:56.252Z,8.85
2022-10-09T04:46:23.815Z,8.10
2022-10-09T04:48:50.636Z,10.43
2022-10-09T04:51:18.555Z,8.20
2022-10-09T04:53:46.755Z,8.07
2022-10-09T04:56:16.003Z,9.18
2022-10-09T04:58:42.545Z,8.38
2022-10-09T05:01:22.641Z,9.43
2022-10-09T05:06:17.844Z,9.40
2022-10-09T05:08:44.723Z,8.85
2022-10-09T05:11:14.503Z,7.18
2022-10-09T05:13:45.096Z,7.85
2022-10-09T05:16:18.112Z,7.30
2022-10-09T05:18:47.072Z,8.05
2022-10-09T05:21:15.802Z,8.25
2022-10-09T05:23:42.485Z,11.48
2022-10-09T05:26:12.584Z,9.13
2022-10-09T05:28:39.224Z,7.80
2022-10-09T05:31:07.297Z,7.13
2022-10-09T05:33:34.264Z,5.97
2022-10-09T05:36:04.823Z,8.68
2022-10-09T05:38:33.147Z,9.52
2022-10-09T05:41:02.180Z,8.48
2022-10-09T05:43:31.757Z,9.60
2022-10-09T05:46:09.420Z,7.32
2022-10-09T05:48:37.732Z,8.23
2022-10-09T05:51:12.559Z,8.85
2022-10-09T05:53:40.506Z,10.10
2022-10-09T05:56:10.786Z,10.13
2022-10-09T05:58:37.177Z,14.95
2022-10-09T06:01:03.637Z,9.52
2022-10-09T06:03:30.167Z,13.30
2022-10-09T06:06:01.171Z,10.63
2022-10-09T06:08:28.743Z,7.78
2022-10-09T06:10:55.122Z,9.02
2022-10-09T06:13:21.848Z,10.50
2022-10-09T06:15:54.767Z,5.97
2022-10-09T06:18:21.791Z,8.45
2022-10-09T06:20:59.992Z,11.38
2022-10-09T06:23:27.407Z,9.60
2022-10-09T06:25:56.123Z,10.70
2022-10-09T06:28:23.141Z,9.80
2022-10-09T06:30:50.289Z,9.07
2022-10-09T06:33:17.144Z,8.98
2022-10-09T06:35:43.755Z,9.70
2022-10-09T06:38:10.572Z,9.15
2022-10-09T06:40:38.067Z,11.35
2022-10-09T06:43:05.449Z,10.13
2022-10-09T06:45:37.792Z,10.95
2022-10-09T06:48:04.539Z,10.00
2022-10-09T06:50:30.928Z,8.98
2022-10-09T06:52:57.466Z,12.05
2022-10-09T06:55:28.517Z,9.55
2022-10-09T06:57:55.323Z,14.57
2022-10-09T07:00:21.737Z,12.82
2022-10-09T07:02:49.823Z,11.65
2022-10-09T07:05:16.904Z,11.75
2022-10-09T07:07:43.396Z,10.48
2022-10-09T07:10:10.262Z,12.68
2022-10-09T07:12:37.958Z,10.70
2022-10-09T07:15:06.615Z,10.55
2022-10-09T07:17:33.099Z,8.70
2022-10-09T07:19:59.626Z,14.70
2022-10-09T07:22:27.073Z,9.27
2022-10-09T07:24:53.813Z,15.60
2022-10-09T07:27:20.236Z,14.40
2022-10-09T07:29:46.801Z,14.40
2022-10-09T07:32:13.173Z,14.73
2022-10-09T07:34:40.783Z,11.90
2022-10-09T07:37:07.167Z,12.63
2022-10-09T07:39:34.894Z,10.10
2022-10-09T07:42:02.317Z,11.90
2022-10-09T07:44:29.014Z,10.48
2022-10-09T07:46:55.441Z,15.77
2022-10-09T07:49:22.095Z,9.57
2022-10-09T07:51:48.529Z,11.38
2022-10-09T07:54:15.102Z,9.13
2022-10-09T07:56:41.582Z,10.48
2022-10-09T07:59:12.632Z,10.55
2022-10-09T08:01:39.991Z,12.27
2022-10-09T08:04:06.870Z,13.98
2022-10-09T08:06:34.420Z,14.38
2022-10-09T08:09:03.624Z,17.38
2022-10-09T08:11:30.848Z,10.50
2022-10-09T08:13:58.163Z,14.02
2022-10-09T08:16:27.157Z,13.40
2022-10-09T08:18:55.639Z,10.82
2022-10-09T08:21:22.149Z,7.53
2022-10-09T08:23:52.621Z,9.98
2022-10-09T08:26:20.615Z,7.05
2022-10-09T08:28:59.102Z,8.75
2022-10-09T08:31:27.489Z,11.85
2022-10-09T08:33:55.968Z,12.68
2022-10-09T08:36:23.092Z,10.50
2022-10-09T08:38:49.730Z,9.98
2022-10-09T08:41:41.949Z,9.23
2022-10-09T08:44:19.351Z,9.60
2022-10-09T08:47:13.307Z,13.40
2022-10-09T08:50:08.877Z,8.63
2022-10-09T08:52:50.066Z,9.23
2022-10-09T08:55:31.441Z,7.43
2022-10-09T08:58:04.331Z,6.35
2022-10-09T09:00:36.717Z,7.10
2022-10-09T09:03:33.991Z,5.75
2022-10-09T09:06:09.686Z,11.05
2022-10-09T09:08:39.138Z,11.10
2022-10-09T09:11:21.764Z,5.18
2022-10-09T09:14:07.331Z,6.00
2022-10-09T09:16:58.431Z,8.00
2022-10-09T09:19:33.980Z,7.57
2022-10-09T09:22:00.603Z,7.43
2022-10-09T09:24:36.209Z,12.43
2022-10-09T09:27:10.283Z,6.43
2022-10-09T09:29:43.344Z,5.10
2022-10-09T09:32:17.484Z,5.30
2022-10-09T09:34:44.554Z,6.07
2022-10-09T09:37:13.153Z,6.82
2022-10-09T09:40:34.925Z,4.50
2022-10-09T09:42:28.164Z,7.95
2022-10-09T09:45:06.195Z,7.22
2022-10-09T09:47:55.915Z,6.60
2022-10-09T09:51:10.144Z,4.72
2022-10-09T09:53:31.962Z,5.20
2022-10-09T09:55:58.918Z,6.63
2022-10-09T09:58:35.412Z,6.82
2022-10-09T10:01:03.680Z,3.42
2022-10-09T10:03:31.178Z,6.47
2022-10-09T10:05:57.721Z,7.18
2022-10-09T10:08:29.698Z,7.90
2022-10-09T10:11:17.378Z,5.15
2022-10-09T10:13:49.278Z,3.80
2022-10-09T10:16:27.847Z,3.08
2022-10-09T10:18:57.569Z,4.65
2022-10-09T10:21:24.637Z,6.10
2022-10-09T10:23:56.458Z,5.07
2022-10-09T10:26:30.839Z,8.07
2022-10-09T10:29:12.355Z,3.07
2022-10-09T10:31:55.100Z,4.82
2022-10-09T10:34:27.863Z,4.30
2022-10-09T10:37:10.270Z,6.25
2022-10-09T10:40:07.193Z,3.40
2022-10-09T10:42:47.952Z,3.75
2022-10-09T10:45:24.611Z,2.72
2022-10-09T10:47:55.115Z,4.28
2022-10-09T10:50:25.907Z,6.07
2022-10-09T10:53:33.769Z,5.88
2022-10-09T10:56:08.493Z,4.22
2022-10-09T10:58:59.879Z,3.55
2022-10-09T11:01:41.378Z,4.68
2022-10-09T11:04:17.814Z,4.30
2022-10-09T11:07:14.227Z,3.97
2022-10-09T11:09:52.115Z,4.63
2022-10-09T11:12:30.165Z,5.53
2022-10-09T11:15:19.165Z,4.20
2022-10-09T11:17:54.330Z,6.13
2022-10-09T11:23:44.738Z,3.05
2022-10-09T11:26:28.826Z,7.55
2022-10-09T11:29:08.760Z,3.05
2022-10-09T11:31:52.507Z,3.42
2022-10-09T11:34:26.624Z,4.63
2022-10-09T11:36:53.582Z,4.90
2022-10-09T11:39:23.843Z,5.18
2022-10-09T11:41:52.656Z,6.22
2022-10-09T11:44:31.518Z,3.28
2022-10-09T11:47:23.841Z,7.15
2022-10-09T11:50:08.260Z,4.47
2022-10-09T11:53:14.810Z,2.13
2022-10-09T11:55:42.650Z,4.90
2022-10-09T11:58:14.852Z,7.93
2022-10-09T12:00:42.575Z,3.72
2022-10-09T12:03:24.945Z,4.72
2022-10-09T12:06:01.623Z,5.10
2022-10-09T12:08:28.294Z,2.80
2022-10-09T12:10:59.256Z,3.67
2022-10-09T12:13:36.938Z,3.85
2022-10-09T12:16:03.920Z,2.63
2022-10-09T12:18:36.303Z,6.95
2022-10-09T12:21:16.991Z,5.13
2022-10-09T12:23:46.714Z,6.07
2022-10-09T12:26:15.206Z,4.07
2022-10-09T12:28:48.447Z,5.38
2022-10-09T12:31:38.398Z,6.47
2022-10-09T12:34:32.349Z,2.95
2022-10-09T12:37:14.222Z,4.88
2022-10-09T12:39:41.484Z,3.28
2022-10-09T12:42:18.479Z,2.47
2022-10-09T12:44:47.942Z,3.50
2022-10-09T12:47:20.631Z,5.43
2022-10-09T12:49:58.469Z,2.60
2022-10-09T12:52:25.374Z,3.42
2022-10-09T12:54:51.931Z,1.83
2022-10-09T12:57:21.755Z,7.30
2022-10-09T12:59:51.353Z,4.88
2022-10-09T13:02:19.927Z,3.17
2022-10-09T13:04:59.576Z,3.88
2022-10-09T13:07:28.826Z,5.63
2022-10-09T13:10:00.381Z,4.63
2022-10-09T13:12:28.883Z,4.15
2022-10-09T13:15:19.908Z,4.95
2022-10-09T13:17:46.807Z,3.75
2022-10-09T13:20:16.512Z,2.92
2022-10-09T13:23:25.871Z,3.38
2022-10-09T13:25:52.376Z,4.63
2022-10-09T13:28:20.642Z,4.32
2022-10-09T13:30:48.391Z,4.18
2022-10-09T13:33:16.384Z,5.07
2022-10-09T13:35:43.226Z,3.92
2022-10-09T13:38:15.649Z,3.38
2022-10-09T13:40:42.753Z,4.88
2022-10-09T13:43:18.721Z,2.78
2022-10-09T13:45:45.435Z,5.68
2022-10-09T13:48:12.985Z,3.13
2022-10-09T13:50:39.404Z,3.67
2022-10-09T13:53:09.202Z,5.55
2022-10-09T13:55:35.961Z,3.80
2022-10-09T13:58:02.887Z,4.53
2022-10-09T14:00:29.538Z,2.33
2022-10-09T14:02:56.366Z,5.25
2022-10-09T14:05:23.639Z,4.07
2022-10-09T14:07:50.299Z,6.93
2022-10-09T14:10:21.714Z,2.75
2022-10-09T14:12:53.020Z,2.78
2022-10-09T14:15:19.604Z,3.92
2022-10-09T14:17:46.323Z,3.90
2022-10-09T14:20:19.964Z,2.55
2022-10-09T14:22:46.505Z,2.97
2022-10-09T14:25:22.517Z,3.80
2022-10-09T14:27:48.900Z,3.15
2022-10-09T14:30:17.666Z,4.05
2022-10-09T14:32:44.220Z,1.95
2022-10-09T14:35:10.872Z,2.60
2022-10-09T14:37:41.496Z,11.60
2022-10-09T14:40:10.211Z,3.95
2022-10-09T14:42:37.814Z,3.15
2022-10-09T14:45:05.625Z,3.45
2022-10-09T14:47:32.182Z,3.35
2022-10-09T14:49:58.652Z,3.15
2022-10-09T14:52:25.338Z,3.08
2022-10-09T14:54:51.809Z,3.33
2022-10-09T14:57:18.263Z,3.80
2022-10-09T14:59:44.825Z,4.60
2022-10-09T15:02:15.517Z,2.08
2022-10-09T15:04:42.125Z,3.67
2022-10-09T15:07:08.739Z,3.80
2022-10-09T15:09:35.222Z,2.03
2022-10-09T15:12:01.591Z,2.58
2022-10-09T15:14:28.108Z,3.35
2022-10-09T15:16:54.507Z,3.88
2022-10-09T15:19:20.985Z,4.53
2022-10-09T15:21:47.373Z,3.80
2022-10-09T15:24:13.835Z,3.58
2022-10-09T15:26:41.565Z,3.03
2022-10-09T15:29:08.730Z,5.57
2022-10-09T15:31:38.185Z,7.10
2022-10-09T15:34:06.117Z,3.75
2022-10-09T15:36:35.382Z,2.15
2022-10-09T15:39:05.736Z,4.57
2022-10-09T15:41:34.747Z,4.35
2022-10-09T15:44:04.133Z,4.97
2022-10-09T15:46:30.868Z,3.65
2022-10-09T15:48:57.546Z,4.25
2022-10-09T15:51:24.639Z,4.05
2022-10-09T15:53:52.601Z,4.68
2022-10-09T15:56:24.313Z,3.50
2022-10-09T15:58:51.888Z,5.82
2022-10-09T16:01:19.064Z,4.53
2022-10-09T16:03:45.877Z,3.97
2022-10-09T16:06:14.597Z,19.08
2022-10-09T16:08:42.004Z,10.35
2022-10-09T16:11:10.672Z,5.15
2022-10-09T16:13:39.763Z,6.18
2022-10-09T16:16:09.783Z,4.22
2022-10-09T16:18:36.987Z,3.83
2022-10-09T16:21:13.887Z,7.78
2022-10-09T16:23:41.333Z,3.58
2022-10-09T16:26:08.828Z,5.22
2022-10-09T16:28:35.673Z,4.18
2022-10-09T16:31:02.272Z,5.45
2022-10-09T16:33:29.140Z,5.03
2022-10-09T16:36:07.358Z,3.75
2022-10-09T16:38:33.803Z,8.88
2022-10-09T16:41:02.569Z,2.13
2022-10-09T16:43:33.410Z,3.83
2022-10-09T16:46:11.424Z,6.55
2022-10-09T16:48:38.029Z,5.28
2022-10-09T16:51:10.004Z,4.22
2022-10-09T16:53:36.713Z,4.22
2022-10-09T16:56:12.466Z,4.90
2022-10-09T16:58:39.777Z,3.83
2022-10-09T17:01:09.936Z,3.58
2022-10-09T17:03:40.390Z,4.45
2022-10-09T17:06:12.002Z,4.80
2022-10-09T17:08:39.068Z,3.33
2022-10-09T17:11:10.183Z,5.18
2022-10-09T17:13:37.030Z,6.28
2022-10-09T17:16:09.115Z,4.68
2022-10-09T17:18:36.449Z,6.53
2022-10-09T17:21:04.703Z,5.05
2022-10-09T17:23:31.513Z,4.07
2022-10-09T17:25:58.321Z,3.67
2022-10-09T17:28:25.281Z,6.90
2022-10-09T17:30:52.045Z,6.28
2022-10-09T17:33:19.918Z,4.65
2022-10-09T17:35:46.889Z,5.55
2022-10-09T17:38:13.417Z,6.10
2022-10-09T17:40:40.212Z,6.78
2022-10-09T17:43:08.645Z,9.13
2022-10-09T17:45:42.278Z,6.70
2022-10-09T17:48:09.580Z,8.48
2022-10-09T17:50:36.920Z,7.43
2022-10-09T17:53:04.467Z,4.43
2022-10-09T17:55:31.413Z,5.82
2022-10-09T17:57:57.905Z,9.00
2022-10-09T18:00:24.347Z,9.48
2022-10-09T18:02:50.842Z,6.00
2022-10-09T18:05:18.385Z,7.90
2022-10-09T18:07:44.839Z,6.80
2022-10-09T18:10:11.405Z,8.40
2022-10-09T18:12:37.768Z,6.68
2022-10-09T18:15:04.750Z,5.53
2022-10-09T18:17:33.365Z,8.90
2022-10-09T18:20:00.194Z,7.28
2022-10-09T18:22:26.618Z,7.55
2022-10-09T18:24:53.218Z,7.93
2022-10-09T18:27:20.264Z,7.20
2022-10-09T18:29:46.824Z,5.05
2022-10-09T18:32:13.246Z,8.57
2022-10-09T18:34:40.713Z,6.07
2022-10-09T18:37:09.494Z,7.68
2022-10-09T18:39:36.046Z,10.00
2022-10-09T18:42:03.926Z,5.65
2022-10-09T18:44:33.840Z,5.22
2022-10-09T18:47:00.424Z,4.60
2022-10-09T18:49:31.601Z,5.60
2022-10-09T18:51:59.934Z,5.45
2022-10-09T18:54:28.245Z,6.47
2022-10-09T18:56:54.810Z,3.92
2022-10-09T18:59:22.779Z,4.60
2022-10-09T19:01:49.288Z,4.90
2022-10-09T19:04:15.990Z,11.70
2022-10-09T19:06:42.540Z,7.57
2022-10-09T19:09:08.943Z,9.77
2022-10-09T19:11:35.500Z,6.25
2022-10-09T19:14:02.033Z,9.73
2022-10-09T19:16:30.494Z,3.65
2022-10-09T19:18:56.986Z,4.93
2022-10-09T19:21:23.654Z,7.38
2022-10-09T19:23:51.604Z,6.05
2022-10-09T19:26:18.902Z,6.25
2022-10-09T19:28:45.688Z,4.13
2022-10-09T19:31:14.998Z,3.33
2022-10-09T19:33:42.644Z,5.45
2022-10-09T19:36:13.441Z,5.18
2022-10-09T19:38:40.979Z,6.05
2022-10-09T19:41:11.035Z,4.95
2022-10-09T19:43:38.091Z,5.05
2022-10-09T19:46:08.595Z,4.60
2022-10-09T19:48:36.643Z,4.82
2022-10-09T19:51:10.201Z,6.63
2022-10-09T19:53:36.661Z,4.07
2022-10-09T19:56:10.237Z,5.32
2022-10-09T19:58:40.699Z,12.05
2022-10-09T20:01:08.783Z,3.13
2022-10-09T20:03:35.291Z,6.25
2022-10-09T20:06:02.661Z,6.95
2022-10-09T20:08:29.130Z,4.25
2022-10-09T20:11:03.117Z,6.07
2022-10-09T20:13:31.076Z,4.57
2022-10-09T20:15:59.931Z,7.90
2022-10-09T20:18:27.316Z,3.60
2022-10-09T20:20:54.049Z,5.95
2022-10-09T20:23:20.854Z,6.15
2022-10-09T20:25:47.459Z,5.05
2022-10-09T20:28:15.343Z,8.70
2022-10-09T20:30:42.691Z,3.08
2022-10-09T20:33:09.563Z,3.97
2022-10-09T20:35:45.147Z,3.97
2022-10-09T20:38:11.966Z,5.55
2022-10-09T20:40:38.340Z,3.55
2022-10-09T20:43:04.954Z,9.40
2022-10-09T20:45:31.441Z,5.15
2022-10-09T20:47:57.974Z,10.82
2022-10-09T20:50:24.731Z,6.82
2022-10-09T20:52:51.433Z,3.03
2022-10-09T20:55:18.055Z,3.83
2022-10-09T20:57:44.489Z,3.03
2022-10-09T21:00:11.457Z,5.28
2022-10-09T21:02:38.120Z,3.65
2022-10-09T21:05:04.947Z,3.10
2022-10-09T21:07:31.749Z,3.88
2022-10-09T21:09:58.274Z,5.45
2022-10-09T21:12:24.636Z,5.65
2022-10-09T21:14:51.094Z,5.03
2022-10-09T21:17:17.520Z,4.75
2022-10-09T21:19:44.179Z,7.20
2022-10-09T21:22:10.627Z,3.45
2022-10-09T21:24:37.089Z,3.42
2022-10-09T21:27:03.689Z,6.93
2022-10-09T21:29:30.054Z,5.10
2022-10-09T21:31:56.707Z,7.82
2022-10-09T21:34:23.116Z,8.30
2022-10-09T21:37:19.761Z,5.15
2022-10-09T21:39:40.027Z,2.97
2022-10-09T21:42:06.416Z,4.25
2022-10-09T21:44:32.990Z,4.28
2022-10-09T21:46:59.501Z,7.50
2022-10-09T21:49:27.494Z,3.22
2022-10-09T21:51:54.454Z,3.85
2022-10-09T21:54:21.536Z,4.38
2022-10-09T21:56:48.559Z,3.55
2022-10-09T21:59:15.201Z,5.30
2022-10-09T22:01:41.729Z,4.68
2022-10-09T22:04:08.487Z,5.35
2022-10-09T22:06:35.069Z,5.60
2022-10-09T22:09:01.504Z,4.43
2022-10-09T22:11:28.163Z,3.90
2022-10-09T22:13:57.715Z,5.13
2022-10-09T22:16:24.139Z,5.25
2022-10-09T22:18:50.704Z,5.78
2022-10-09T22:21:18.443Z,6.72
2022-10-09T22:23:45.227Z,4.47
2022-10-09T22:26:17.370Z,5.45
2022-10-09T22:28:45.123Z,4.43
2022-10-09T22:31:18.125Z,4.10
2022-10-09T22:33:44.725Z,5.55
2022-10-09T22:36:16.881Z,4.43
2022-10-09T22:38:44.424Z,5.07
2022-10-09T22:41:12.200Z,3.92
2022-10-09T22:43:40.498Z,4.43
2022-10-09T22:46:28.787Z,6.60
2022-10-09T22:48:55.735Z,5.28
2022-10-09T22:51:23.784Z,5.35
2022-10-09T22:53:50.431Z,4.00
2022-10-09T22:56:25.867Z,8.00
2022-10-09T22:58:53.191Z,4.78
2022-10-09T23:01:22.117Z,4.57
2022-10-09T23:03:48.550Z,4.97
2022-10-09T23:06:17.675Z,4.72
2022-10-09T23:08:46.781Z,4.18
2022-10-09T23:11:14.475Z,5.72
2022-10-09T23:13:41.097Z,8.00
2022-10-09T23:16:09.981Z,5.18
2022-10-09T23:18:37.317Z,3.70
2022-10-09T23:21:10.600Z,6.55
2022-10-09T23:23:37.375Z,6.85
2022-10-09T23:26:08.143Z,3.40
2022-10-09T23:28:35.735Z,3.58
2022-10-09T23:31:04.382Z,6.97
2022-10-09T23:33:30.868Z,4.00
2022-10-09T23:35:58.861Z,6.18
2022-10-09T23:38:25.478Z,5.53
2022-10-09T23:40:59.983Z,6.00
2022-10-09T23:43:28.237Z,5.88
2022-10-09T23:45:57.100Z,6.32
2022-10-09T23:48:23.991Z,4.38
2022-10-09T23:50:51.281Z,4.93
2022-10-09T23:53:18.412Z,7.93
2022-10-09T23:55:45.401Z,7.22
2022-10-09T23:58:17.191Z,6.05
